weather.gov     
National Weather Service

Terminal Aerodrome Forecast
NWS Homepage
This page is being discontinued on March 12, 2014.
The same data is available at this site. Please update your bookmarks.
Thank you, and we apologize for the inconvenience.
Please send an email to SR-SRH.Webmaster@noaa.gov with any concerns.


Current Version
Previous Version:    01  02  03  04  05  06  07  08  09  10  11  12  13  14  15  16  17  18  19  20  21  22  23  24  25  26  27  28  29  30  
   31  32  33  34  35  36  37  38  39  
[Printable]
727
FTUS46 KPQR 171739
TAFTTD
TAF
KTTD 171739Z 1718/1818 17005KT 6SM -RA BR FEW008 BKN012 OVC025
     FM180100 24010KT P6SM -RA BKN025 OVC040
     FM180430 29007KT P6SM VCSH FEW025 SCT040
     FM181200 27003KT 6SM BR SCT015 SCT040=




727
FTUS46 KPQR 171739
TAFTTD
TAF
KTTD 171739Z 1718/1818 17005KT 6SM -RA BR FEW008 BKN012 OVC025
     FM180100 24010KT P6SM -RA BKN025 OVC040
     FM180430 29007KT P6SM VCSH FEW025 SCT040
     FM181200 27003KT 6SM BR SCT015 SCT040=


U.S. Dept. of Commerce
NOAA National Weather Service
1325 East West Highway
Silver Spring, MD 20910
E-mail: w-nws.webmaster@noaa.gov
Page last modified: May 16, 2007
NATIONAL WEATHER SERVICE: for Safety, for Work, for Fun - FOR LIFE